Corpus Christi, Texas
Current Conditions -  °F | °C
As of 4:51 AM on Friday 21 Nov 2014 (Local Time) from KCRP Reporting Station
Overcast Overcast  
Wind Chill: 19°   Ceiling: 5500
Heat Index: 19°   Visibility: 9mi
Dew Point: 18°   Wind: 6mph
Humidity: 93%   Direction: 170°S
Pressure: 30.03"   Gusts: NA
Location:  27.8°N, 97.4°W
Report Text: KCRP 211051Z 17005KT 9SM SCT036 OVC055 19/18 A3003 RMK AO2 RAB0959E31 SLP167 P0001 T01890178
Loading
Personal Weather Stations






























Interactive Weather Map New forecast layout! Learn more

10-Day Weather Forecast

Advertisements
Track Severe Weather on mobile